Time;durP1;ratioP1;P1;durP2;ratioP2;P2;SDS_P1;SDS_P2;PMS_P1;PMS_P2;Temp;Humidity;BMP_temperature;BMP_pressure;BME280_temperature;BME280_humidity;BME280_pressure;Samples;Min_cycle;Max_cycle;Signal;HPM_P1;HPM_P2
2023/08/24 00:00:28;;;;;;;4.00;2.40;;;;;;;15.32;100.00;99744.85;109407;1251;74610;-73
2023/08/24 00:02:55;;;;;;;3.80;2.20;;;;;;;15.30;100.00;99743.38;109455;1251;71753;-73
2023/08/24 00:05:23;;;;;;;8.10;2.60;;;;;;;15.27;100.00;99744.23;109413;1251;73263;-73
2023/08/24 00:07:52;;;;;;;8.10;2.90;;;;;;;15.25;100.00;99744.66;109426;1251;60077;-73
2023/08/24 00:10:20;;;;;;;5.00;2.90;;;;;;;15.22;100.00;99742.52;109436;1251;58899;-74
2023/08/24 00:12:47;;;;;;;3.80;2.40;;;;;;;15.21;100.00;99744.02;109423;1251;73385;-73
2023/08/24 00:15:15;;;;;;;4.70;2.80;;;;;;;15.18;100.00;99746.61;109454;1250;69867;-73
2023/08/24 00:17:42;;;;;;;6.00;3.00;;;;;;;15.16;100.00;99748.65;109468;1251;71424;-73
2023/08/24 00:20:10;;;;;;;6.90;2.80;;;;;;;15.15;100.00;99747.83;109418;1251;60555;-73
2023/08/24 00:22:39;;;;;;;4.40;2.60;;;;;;;15.13;100.00;99757.98;109426;1251;58888;-72
2023/08/24 00:25:07;;;;;;;6.60;2.60;;;;;;;15.13;100.00;99752.36;109411;1251;74716;-73
2023/08/24 00:27:35;;;;;;;4.60;2.80;;;;;;;15.11;100.00;99750.48;109469;1251;70923;-73
2023/08/24 00:30:04;;;;;;;7.20;2.80;;;;;;;15.08;100.00;99750.10;109430;1251;71806;-73
2023/08/24 00:32:34;;;;;;;4.10;2.90;;;;;;;15.05;100.00;99748.64;109450;1251;60079;-73
2023/08/24 00:35:03;;;;;;;7.20;3.40;;;;;;;15.02;100.00;99748.10;109391;1251;60628;-73
2023/08/24 00:37:31;;;;;;;5.10;2.70;;;;;;;14.99;100.00;99752.84;109426;1251;73744;-73
2023/08/24 00:40:04;;;;;;;5.00;3.10;;;;;;;14.95;100.00;99751.79;109324;1251;69096;-73
2023/08/24 00:42:32;;;;;;;4.10;3.20;;;;;;;14.94;100.00;99751.88;109426;1251;72672;-73
2023/08/24 00:45:00;;;;;;;6.70;3.20;;;;;;;14.92;100.00;99751.96;108666;1252;1002255;-73
2023/08/24 00:47:27;;;;;;;5.10;2.60;;;;;;;14.90;100.00;99757.55;108683;1251;1002049;-73
2023/08/24 00:49:55;;;;;;;9.90;3.60;;;;;;;14.89;100.00;99758.30;109129;1251;399015;-73
2023/08/24 00:52:24;;;;;;;4.60;3.30;;;;;;;14.89;100.00;99757.45;109441;1251;69967;-73
2023/08/24 00:54:51;;;;;;;6.10;2.80;;;;;;;14.87;100.00;99755.21;109300;1251;72921;-73
2023/08/24 00:57:19;;;;;;;3.50;3.00;;;;;;;14.87;100.00;99750.45;109432;1252;62222;-73
2023/08/24 00:59:47;;;;;;;4.80;3.10;;;;;;;14.84;100.00;99749.52;109408;1251;60033;-73
2023/08/24 01:02:14;;;;;;;6.90;3.50;;;;;;;14.81;100.00;99745.79;109413;1251;75119;-73
2023/08/24 01:04:45;;;;;;;7.10;3.70;;;;;;;14.79;100.00;99750.80;109392;1251;71319;-72
2023/08/24 01:07:12;;;;;;;4.30;3.20;;;;;;;14.77;100.00;99750.73;109436;1251;72728;-73
2023/08/24 01:09:40;;;;;;;3.80;3.00;;;;;;;14.75;100.00;99749.05;109420;1253;59152;-73
2023/08/24 01:12:25;;;;;;;6.00;3.30;;;;;;;14.74;100.00;99753.19;109404;1251;60013;-73
2023/08/24 01:15:07;;;;;;;8.10;4.20;;;;;;;14.71;100.00;99751.71;109414;1253;73442;-73
2023/08/24 01:17:36;;;;;;;4.50;3.30;;;;;;;14.69;100.00;99748.30;109405;1251;69632;-73
2023/08/24 01:20:05;;;;;;;11.10;3.70;;;;;;;14.68;100.00;99752.05;109409;1251;72261;-73
2023/08/24 01:23:00;;;;;;;9.00;3.20;;;;;;;14.65;100.00;99752.73;109434;1251;60113;-73
2023/08/24 01:25:34;;;;;;;6.40;3.30;;;;;;;14.63;100.00;99754.27;109416;1251;59585;-73
2023/08/24 01:28:02;;;;;;;4.30;3.30;;;;;;;14.59;100.00;99750.88;108659;1251;1002534;-73
2023/08/24 01:30:30;;;;;;;6.80;3.50;;;;;;;14.58;100.00;99756.05;109407;1251;69608;-73
2023/08/24 01:32:58;;;;;;;8.90;3.60;;;;;;;14.54;100.00;99756.41;109417;1253;71414;-73
2023/08/24 01:35:26;;;;;;;13.00;4.20;;;;;;;14.49;100.00;99752.39;109435;1251;60066;-73
2023/08/24 01:37:53;;;;;;;7.50;4.50;;;;;;;14.46;100.00;99752.85;109458;1251;59366;-73
2023/08/24 01:40:26;;;;;;;6.20;3.80;;;;;;;14.44;100.00;99755.08;109435;1252;72911;-73
2023/08/24 01:42:59;;;;;;;7.90;4.30;;;;;;;14.41;100.00;99755.05;109316;1251;71081;-73
2023/08/24 01:45:29;;;;;;;12.50;5.00;;;;;;;14.39;100.00;99753.04;109474;1251;72710;-74
2023/08/24 01:47:56;;;;;;;8.60;3.90;;;;;;;14.37;100.00;99754.86;109395;1251;59033;-74
2023/08/24 01:50:24;;;;;;;9.30;4.00;;;;;;;14.36;100.00;99757.40;109459;1251;60006;-74
2023/08/24 01:52:51;;;;;;;9.10;4.90;;;;;;;14.35;100.00;99758.50;109460;1251;75082;-73
2023/08/24 01:55:19;;;;;;;7.60;4.40;;;;;;;14.33;100.00;99758.06;109441;1251;70912;-74
2023/08/24 01:57:48;;;;;;;10.40;4.80;;;;;;;14.31;100.00;99757.09;109441;1251;72651;-73
2023/08/24 02:00:16;;;;;;;10.90;4.20;;;;;;;14.30;100.00;99758.22;109361;1253;60397;-73
2023/08/24 02:02:46;;;;;;;11.10;5.00;;;;;;;14.27;100.00;99760.09;109433;1252;60487;-74
2023/08/24 02:05:14;;;;;;;9.80;5.00;;;;;;;14.25;100.00;99766.05;109434;1251;73476;-74
2023/08/24 02:07:42;;;;;;;7.70;4.40;;;;;;;14.22;100.00;99767.77;109421;1251;71280;-74
2023/08/24 02:10:09;;;;;;;12.30;4.80;;;;;;;14.19;100.00;99772.10;109385;1251;72770;-74
2023/08/24 02:12:37;;;;;;;9.90;4.80;;;;;;;14.17;100.00;99767.79;106358;1251;1002871;-74
2023/08/24 02:15:04;;;;;;;7.90;5.00;;;;;;;14.15;100.00;99767.34;109419;1251;59065;-73
2023/08/24 02:17:33;;;;;;;11.00;5.30;;;;;;;14.12;100.00;99768.70;109417;1251;74587;-74
2023/08/24 02:20:01;;;;;;;16.90;6.10;;;;;;;14.10;100.00;99766.70;109400;1251;71116;-73
2023/08/24 02:22:30;;;;;;;8.30;5.10;;;;;;;14.07;100.00;99765.23;109410;1253;72939;-74
2023/08/24 02:24:57;;;;;;;9.40;5.60;;;;;;;14.05;100.00;99766.90;109361;1251;59407;-74
2023/08/24 02:27:25;;;;;;;8.50;4.80;;;;;;;14.04;100.00;99768.02;109430;1251;60584;-74
2023/08/24 02:29:52;;;;;;;10.60;5.20;;;;;;;14.04;100.00;99766.27;109381;1251;74622;-74
2023/08/24 02:32:20;;;;;;;11.10;5.30;;;;;;;14.02;100.00;99769.70;109402;1251;69637;-73
2023/08/24 02:34:47;;;;;;;12.60;5.30;;;;;;;14.00;100.00;99766.11;109432;1251;72888;-74
2023/08/24 02:37:15;;;;;;;11.20;5.10;;;;;;;13.97;100.00;99767.63;109403;1251;60584;-74
2023/08/24 02:39:43;;;;;;;10.00;5.40;;;;;;;13.95;100.00;99770.16;109435;1252;60058;-73
2023/08/24 02:42:10;;;;;;;11.50;5.40;;;;;;;13.93;100.00;99772.01;109399;1251;73305;-74
2023/08/24 02:44:37;;;;;;;11.60;5.10;;;;;;;13.93;100.00;99774.66;109431;1251;70788;-74
2023/08/24 02:47:05;;;;;;;11.70;5.40;;;;;;;13.92;100.00;99777.20;109426;1253;72597;-73
2023/08/24 02:49:32;;;;;;;12.10;4.90;;;;;;;13.91;100.00;99777.27;106414;1251;1003073;-73
2023/08/24 02:52:01;;;;;;;15.40;5.90;;;;;;;13.89;100.00;99775.55;109385;1251;59981;-74
2023/08/24 02:54:28;;;;;;;15.80;6.00;;;;;;;13.88;100.00;99778.59;109428;1251;73146;-74
2023/08/24 02:56:56;;;;;;;11.20;5.40;;;;;;;13.88;100.00;99783.20;109421;1255;70285;-73
2023/08/24 02:59:24;;;;;;;8.70;4.90;;;;;;;13.88;100.00;99788.14;109437;1252;72667;-73
2023/08/24 03:01:52;;;;;;;11.20;5.80;;;;;;;13.87;100.00;99784.64;109386;1253;59245;-74
2023/08/24 03:04:21;;;;;;;12.20;5.70;;;;;;;13.85;100.00;99785.98;108716;1251;1002150;-73
2023/08/24 03:06:51;;;;;;;15.50;6.00;;;;;;;13.84;100.00;99781.82;109433;1251;74625;-74
2023/08/24 03:09:19;;;;;;;11.80;5.90;;;;;;;13.82;100.00;99781.85;109431;1251;69824;-74
2023/08/24 03:11:46;;;;;;;13.50;6.10;;;;;;;13.82;100.00;99778.86;109395;1251;73189;-74
2023/08/24 03:14:14;;;;;;;14.20;6.20;;;;;;;13.83;100.00;99772.33;109404;1251;60368;-73
2023/08/24 03:16:41;;;;;;;14.40;6.40;;;;;;;13.83;100.00;99776.18;109372;1251;59274;-73
2023/08/24 03:19:11;;;;;;;12.10;6.40;;;;;;;13.84;100.00;99778.80;109395;1251;75268;-73
2023/08/24 03:21:38;;;;;;;12.10;6.50;;;;;;;13.83;100.00;99779.20;109412;1251;71267;-74
2023/08/24 03:24:06;;;;;;;23.90;7.20;;;;;;;13.81;100.00;99776.64;109410;1252;72455;-74
2023/08/24 03:26:33;;;;;;;19.70;8.20;;;;;;;13.82;100.00;99778.67;109389;1251;60445;-74
2023/08/24 03:29:01;;;;;;;15.00;7.30;;;;;;;13.83;100.00;99780.41;109441;1252;59987;-74
2023/08/24 03:31:28;;;;;;;23.00;8.70;;;;;;;13.84;100.00;99781.44;109400;1251;73312;-73
2023/08/24 03:33:56;;;;;;;27.60;8.70;;;;;;;13.86;100.00;99783.61;109388;1251;69148;-74
2023/08/24 03:36:24;;;;;;;27.10;8.80;;;;;;;13.89;100.00;99782.27;109411;1251;71434;-73
2023/08/24 03:38:51;;;;;;;34.60;13.70;;;;;;;13.93;100.00;99784.77;109403;1251;61108;-73
2023/08/24 03:41:19;;;;;;;36.10;14.60;;;;;;;13.96;100.00;99792.73;109406;1251;60022;-74
2023/08/24 03:43:46;;;;;;;32.10;12.30;;;;;;;13.99;100.00;99793.31;109431;1251;72399;-73
2023/08/24 03:46:14;;;;;;;27.80;11.50;;;;;;;14.02;100.00;99795.98;109392;1252;71110;-73
2023/08/24 03:48:42;;;;;;;27.10;10.80;;;;;;;14.04;100.00;99800.12;109359;1253;70095;-73
2023/08/24 03:51:10;;;;;;;30.20;11.70;;;;;;;14.07;100.00;99803.69;109446;1252;59303;-74
2023/08/24 03:53:38;;;;;;;33.40;13.60;;;;;;;14.11;100.00;99805.79;109389;1251;58969;-74
2023/08/24 03:56:06;;;;;;;47.60;16.10;;;;;;;14.19;100.00;99804.23;109377;1253;74606;-74
2023/08/24 03:58:34;;;;;;;43.60;16.20;;;;;;;14.25;100.00;99806.97;109412;1251;70950;-73
2023/08/24 04:01:06;;;;;;;41.10;17.10;;;;;;;14.32;100.00;99807.70;109355;1253;71761;-73
2023/08/24 04:03:34;;;;;;;37.30;17.30;;;;;;;14.39;100.00;99810.70;109370;1251;60060;-73
2023/08/24 04:06:02;;;;;;;40.60;16.10;;;;;;;14.45;100.00;99809.19;109471;1251;58972;-74
2023/08/24 04:08:29;;;;;;;41.40;16.40;;;;;;;14.54;100.00;99809.69;109378;1251;74759;-75
2023/08/24 04:10:57;;;;;;;41.30;17.60;;;;;;;14.61;100.00;99810.98;109422;1251;70932;-74
2023/08/24 04:13:24;;;;;;;41.20;16.60;;;;;;;14.67;100.00;99809.66;109459;1252;72537;-74
2023/08/24 04:15:52;;;;;;;34.20;15.90;;;;;;;14.73;100.00;99805.14;109396;1252;59181;-74
2023/08/24 04:18:19;;;;;;;39.40;16.20;;;;;;;14.79;100.00;99808.36;109443;1251;60102;-74
2023/08/24 04:20:48;;;;;;;48.30;20.60;;;;;;;14.88;100.00;99812.92;109437;1251;74659;-74
2023/08/24 04:23:16;;;;;;;57.70;24.50;;;;;;;14.96;100.00;99811.32;109462;1251;69970;-74
2023/08/24 04:25:43;;;;;;;62.10;24.90;;;;;;;15.04;100.00;99815.69;109433;1252;72676;-74
2023/08/24 04:28:11;;;;;;;57.50;23.10;;;;;;;15.13;100.00;99812.25;109405;1251;59082;-74
2023/08/24 04:30:39;;;;;;;57.50;23.90;;;;;;;15.22;100.00;99810.02;109389;1251;58974;-74
2023/08/24 04:33:07;;;;;;;60.00;22.10;;;;;;;15.32;100.00;99808.13;109405;1251;74611;-74
2023/08/24 04:35:35;;;;;;;46.10;19.50;;;;;;;15.42;100.00;99810.13;109464;1251;70926;-75
2023/08/24 04:38:03;;;;;;;49.00;17.50;;;;;;;15.52;100.00;99805.73;109369;1253;72686;-74
2023/08/24 04:40:45;;;;;;;38.80;15.10;;;;;;;15.62;100.00;99802.55;109412;1251;60028;-74
2023/08/24 04:43:13;;;;;;;35.90;14.30;;;;;;;15.74;100.00;99801.59;109411;1251;58985;-74
2023/08/24 04:45:40;;;;;;;43.50;13.70;;;;;;;15.89;100.00;99803.15;109430;1251;73803;-74
2023/08/24 04:48:07;;;;;;;37.00;13.60;;;;;;;16.01;100.00;99803.59;109433;1253;70961;-74
2023/08/24 04:50:35;;;;;;;26.50;12.90;;;;;;;16.12;100.00;99796.33;109411;1252;73097;-74
2023/08/24 04:53:03;;;;;;;44.40;12.40;;;;;;;16.21;100.00;99793.17;109407;1251;59035;-74
2023/08/24 04:55:30;;;;;;;27.40;11.50;;;;;;;16.30;100.00;99786.15;109410;1255;59978;-74
2023/08/24 04:57:57;;;;;;;21.30;10.10;;;;;;;16.39;100.00;99786.17;109396;1253;73890;-73
2023/08/24 05:00:25;;;;;;;27.70;8.70;;;;;;;16.49;100.00;99782.09;109437;1255;71098;-75
2023/08/24 05:02:53;;;;;;;14.10;7.40;;;;;;;16.61;100.00;99780.73;109419;1251;72750;-74
2023/08/24 05:05:21;;;;;;;20.20;8.50;;;;;;;16.77;100.00;99773.86;109411;1253;58972;-74
2023/08/24 05:07:48;;;;;;;23.40;10.60;;;;;;;16.92;100.00;99768.57;109449;1251;59988;-74
2023/08/24 05:10:16;;;;;;;27.50;10.50;;;;;;;17.08;100.00;99768.73;109425;1253;75089;-74
2023/08/24 05:12:43;;;;;;;20.00;7.90;;;;;;;17.23;100.00;99772.10;109416;1251;70815;-74
2023/08/24 05:15:12;;;;;;;14.90;8.60;;;;;;;17.38;100.00;99775.14;109393;1253;72666;-74
2023/08/24 05:17:40;;;;;;;18.50;8.70;;;;;;;17.53;100.00;99774.67;109376;1252;61694;-75
2023/08/24 05:20:10;;;;;;;20.60;7.10;;;;;;;17.66;100.00;99780.40;109416;1251;59993;-74
2023/08/24 05:22:38;;;;;;;19.00;7.00;;;;;;;17.78;100.00;99770.80;109416;1252;74801;-74
2023/08/24 05:25:06;;;;;;;17.30;6.10;;;;;;;17.93;100.00;99772.42;109455;1251;71098;-74
2023/08/24 05:27:33;;;;;;;24.40;6.00;;;;;;;18.06;100.00;99767.56;109411;1251;71437;-74
2023/08/24 05:30:01;;;;;;;18.70;5.50;;;;;;;18.19;100.00;99761.42;109336;1251;59290;-74
2023/08/24 05:32:28;;;;;;;25.50;5.60;;;;;;;18.31;100.00;99759.99;109416;1252;60560;-74
2023/08/24 05:34:56;;;;;;;15.60;5.30;;;;;;;18.40;100.00;99758.52;109439;1253;73421;-74
2023/08/24 05:37:24;;;;;;;14.70;5.30;;;;;;;18.51;100.00;99758.89;109429;1253;71122;-74
2023/08/24 05:39:51;;;;;;;22.90;5.10;;;;;;;18.61;100.00;99760.20;109413;1251;72753;-74
2023/08/24 05:42:19;;;;;;;17.20;5.00;;;;;;;18.72;100.00;99757.38;109353;1251;59161;-74
2023/08/24 05:44:46;;;;;;;16.10;4.60;;;;;;;18.86;100.00;99754.92;109422;1251;59182;-74
2023/08/24 05:47:14;;;;;;;14.20;4.10;;;;;;;18.99;100.00;99748.91;109422;1252;74572;-75
2023/08/24 05:49:41;;;;;;;17.90;4.50;;;;;;;19.11;100.00;99743.48;109421;1251;70296;-73
2023/08/24 05:52:09;;;;;;;21.30;5.50;;;;;;;19.24;100.00;99739.09;109406;1251;71437;-74
2023/08/24 05:54:36;;;;;;;16.10;3.60;;;;;;;19.36;100.00;99734.72;109385;1251;60178;-74
2023/08/24 05:57:04;;;;;;;9.50;2.90;;;;;;;19.49;100.00;99727.95;109433;1251;59021;-74
2023/08/24 05:59:33;;;;;;;8.10;2.70;;;;;;;19.62;100.00;99720.64;109393;1251;74630;-74
2023/08/24 06:02:00;;;;;;;4.60;2.20;;;;;;;19.75;100.00;99719.10;109434;1251;70820;-75
2023/08/24 06:04:28;;;;;;;5.40;2.20;;;;;;;19.87;100.00;99713.65;109403;1251;72436;-74
2023/08/24 06:06:55;;;;;;;6.70;2.10;;;;;;;19.99;100.00;99709.94;109408;1251;59334;-74
2023/08/24 06:09:23;;;;;;;10.60;2.30;;;;;;;20.10;100.00;99708.33;109478;1251;60014;-74
2023/08/24 06:11:51;;;;;;;5.90;1.60;;;;;;;20.19;100.00;99711.00;109443;1250;73369;-74
2023/08/24 06:14:18;;;;;;;3.80;1.40;;;;;;;20.28;100.00;99707.90;109404;1251;69824;-74
2023/08/24 06:16:45;;;;;;;3.20;1.40;;;;;;;20.40;100.00;99708.48;109380;1251;71322;-74
2023/08/24 06:19:14;;;;;;;5.90;1.80;;;;;;;20.52;100.00;99698.91;109357;1251;60084;-73
2023/08/24 06:21:41;;;;;;;5.30;2.00;;;;;;;20.61;100.00;99701.23;109423;1255;59253;-73
2023/08/24 06:24:08;;;;;;;6.80;2.20;;;;;;;20.72;100.00;99703.86;109415;1251;73471;-74
2023/08/24 06:26:36;;;;;;;8.80;1.40;;;;;;;20.85;100.00;99701.96;109413;1251;71313;-74
2023/08/24 06:29:03;;;;;;;4.10;1.80;;;;;;;20.98;100.00;99700.80;109436;1251;72760;-75
2023/08/24 06:31:32;;;;;;;5.50;2.10;;;;;;;21.11;100.00;99700.41;109405;1251;60074;-73
2023/08/24 06:34:00;;;;;;;4.40;1.70;;;;;;;21.21;100.00;99701.08;109387;1253;60170;-73
2023/08/24 06:36:29;;;;;;;3.00;1.60;;;;;;;21.29;100.00;99704.43;109300;1251;74666;-73
2023/08/24 06:38:58;;;;;;;2.80;1.40;;;;;;;21.34;100.00;99705.45;109408;1251;71097;-73
2023/08/24 06:41:26;;;;;;;2.00;1.20;;;;;;;21.39;100.00;99704.70;109409;1251;73132;-73
2023/08/24 06:43:53;;;;;;;2.80;1.00;;;;;;;21.47;100.00;99708.52;109421;1251;60138;-75
2023/08/24 06:46:22;;;;;;;10.10;1.50;;;;;;;21.58;100.00;99714.95;109392;1251;59461;-74
2023/08/24 06:48:49;;;;;;;4.10;1.40;;;;;;;21.67;100.00;99712.02;109393;1251;74650;-73
2023/08/24 06:51:16;;;;;;;10.20;1.50;;;;;;;21.79;100.00;99717.21;109458;1251;70374;-74
2023/08/24 06:53:46;;;;;;;3.00;1.20;;;;;;;21.87;100.00;99720.09;109443;1251;73135;-74
2023/08/24 06:56:14;;;;;;;3.40;1.40;;;;;;;21.94;100.00;99719.80;109403;1251;59207;-73
2023/08/24 06:58:42;;;;;;;5.10;1.90;;;;;;;21.99;100.00;99720.85;109466;1251;60019;-74
2023/08/24 07:01:10;;;;;;;6.80;1.50;;;;;;;22.00;100.00;99719.46;109413;1251;73759;-74
2023/08/24 07:03:38;;;;;;;5.20;2.00;;;;;;;22.03;100.00;99715.81;109420;1251;70849;-73
2023/08/24 07:06:07;;;;;;;4.20;1.30;;;;;;;22.12;100.00;99717.25;109417;1251;72668;-74
2023/08/24 07:08:34;;;;;;;3.20;1.10;;;;;;;22.24;100.00;99716.30;109394;1251;59030;-73
2023/08/24 07:11:04;;;;;;;5.30;1.90;;;;;;;22.37;100.00;99716.03;109428;1252;59117;-74
2023/08/24 07:13:32;;;;;;;3.80;1.20;;;;;;;22.49;100.00;99714.02;109380;1251;73477;-74
2023/08/24 07:15:59;;;;;;;4.30;1.10;;;;;;;22.60;100.00;99713.81;109415;1251;69698;-73
2023/08/24 07:18:27;;;;;;;4.30;1.50;;;;;;;22.72;100.00;99713.38;109384;1252;71696;-73
2023/08/24 07:20:54;;;;;;;4.60;1.70;;;;;;;22.81;100.00;99717.83;109408;1251;60078;-73
2023/08/24 07:23:22;;;;;;;4.60;1.50;;;;;;;22.86;100.00;99717.38;109408;1251;60017;-75
2023/08/24 07:25:49;;;;;;;3.30;1.10;;;;;;;22.92;100.00;99718.36;109447;1251;73918;-74
2023/08/24 07:28:17;;;;;;;6.70;1.20;;;;;;;22.94;100.00;99714.78;109433;1251;71227;-74
2023/08/24 07:30:44;;;;;;;1.40;0.90;;;;;;;22.94;100.00;99715.09;109370;1251;73115;-74
2023/08/24 07:33:12;;;;;;;4.80;1.00;;;;;;;22.96;100.00;99714.61;109381;1251;60127;-73
2023/08/24 07:35:39;;;;;;;2.10;1.20;;;;;;;23.00;100.00;99714.84;109379;1251;59249;-74
2023/08/24 07:38:07;;;;;;;3.20;0.90;;;;;;;23.05;100.00;99714.46;109435;1251;74587;-74
2023/08/24 07:40:34;;;;;;;2.20;1.20;;;;;;;23.08;100.00;99715.84;109419;1251;70975;-74
2023/08/24 07:43:01;;;;;;;2.70;1.10;;;;;;;23.12;100.00;99716.33;109449;1251;72629;-74
2023/08/24 07:45:29;;;;;;;6.90;1.00;;;;;;;23.22;100.00;99713.57;108654;1254;1002220;-74
2023/08/24 07:47:56;;;;;;;4.70;1.00;;;;;;;23.35;100.00;99709.58;109429;1251;59488;-74
2023/08/24 07:50:24;;;;;;;1.40;0.80;;;;;;;23.47;100.00;99705.33;109363;1251;74661;-74
2023/08/24 07:52:52;;;;;;;1.70;0.80;;;;;;;23.55;100.00;99708.24;109417;1251;70774;-74
2023/08/24 07:55:23;;;;;;;2.80;1.10;;;;;;;23.61;100.00;99710.42;109405;1254;71221;-74
2023/08/24 07:57:51;;;;;;;2.70;1.20;;;;;;;23.64;100.00;99709.60;109415;1251;60115;-74
2023/08/24 08:00:19;;;;;;;2.00;0.90;;;;;;;23.67;100.00;99709.36;109416;1251;59301;-73
2023/08/24 08:02:50;;;;;;;3.30;1.00;;;;;;;23.67;100.00;99708.83;109409;1251;73332;-74
2023/08/24 08:05:18;;;;;;;2.70;0.90;;;;;;;23.76;100.00;99707.52;109304;1251;71435;-75
2023/08/24 08:07:45;;;;;;;1.90;1.10;;;;;;;23.90;100.00;99709.02;109385;1251;71459;-74
2023/08/24 08:10:13;;;;;;;4.20;0.90;;;;;;;23.92;94.52;99702.90;109406;1251;58987;-73
2023/08/24 08:12:41;;;;;;;4.40;1.00;;;;;;;23.88;99.37;99705.44;109459;1251;58898;-75
2023/08/24 08:15:09;;;;;;;4.50;0.90;;;;;;;23.85;98.30;99707.85;109415;1254;73348;-74
2023/08/24 08:17:37;;;;;;;2.20;1.00;;;;;;;23.85;98.90;99707.17;109411;1251;69788;-74
2023/08/24 08:20:05;;;;;;;2.30;1.60;;;;;;;23.92;100.00;99707.60;109404;1254;72657;-74
2023/08/24 08:22:37;;;;;;;3.20;0.80;;;;;;;24.05;94.56;99703.55;109432;1251;60021;-74
2023/08/24 08:25:06;;;;;;;1.60;0.90;;;;;;;24.13;94.61;99701.47;109442;1251;59332;-73
2023/08/24 08:27:34;;;;;;;5.20;1.20;;;;;;;24.15;87.51;99704.23;109429;1251;74734;-74
2023/08/24 08:30:04;;;;;;;4.50;1.00;;;;;;;24.14;91.43;99707.13;109414;1251;71121;-73
2023/08/24 08:32:32;;;;;;;3.40;1.20;;;;;;;24.17;89.45;99700.97;109392;1251;70906;-74
2023/08/24 08:35:00;;;;;;;3.70;1.00;;;;;;;24.25;89.63;99700.80;109412;1251;59755;-75
2023/08/24 08:37:30;;;;;;;3.90;1.20;;;;;;;24.29;82.41;99698.74;109456;1251;58930;-73
2023/08/24 08:39:58;;;;;;;4.10;1.50;;;;;;;24.31;88.13;99694.30;109421;1251;74571;-74
2023/08/24 08:42:25;;;;;;;2.50;1.00;;;;;;;24.42;95.44;99694.20;109422;1251;70946;-73
2023/08/24 08:44:54;;;;;;;1.50;0.80;;;;;;;24.59;88.04;99690.61;109385;1251;71334;-74
2023/08/24 08:47:22;;;;;;;2.60;1.00;;;;;;;24.69;83.67;99688.73;109424;1251;60038;-74
2023/08/24 08:49:50;;;;;;;1.50;0.90;;;;;;;24.77;82.68;99685.58;109241;1251;60600;-75
2023/08/24 08:52:17;;;;;;;7.60;1.20;;;;;;;24.89;98.53;99688.55;109313;1251;74609;-75
2023/08/24 08:54:45;;;;;;;2.90;1.50;;;;;;;25.10;96.62;99685.06;109249;1251;70109;-73
2023/08/24 08:57:13;;;;;;;2.60;1.50;;;;;;;25.27;82.84;99679.37;109375;1251;71173;-74
2023/08/24 08:59:40;;;;;;;3.10;1.20;;;;;;;25.35;69.89;99678.84;109406;1251;59295;-74
2023/08/24 09:02:09;;;;;;;1.70;0.90;;;;;;;25.35;71.45;99679.15;109326;1251;58875;-75
2023/08/24 09:04:36;;;;;;;6.00;1.40;;;;;;;25.37;71.39;99679.08;109317;1251;73467;-74
2023/08/24 09:07:10;;;;;;;3.30;0.90;;;;;;;25.41;79.45;99676.41;109263;1251;70811;-74
2023/08/24 09:09:38;;;;;;;2.50;1.00;;;;;;;25.56;76.98;99673.55;109385;1251;72667;-74
2023/08/24 09:12:06;;;;;;;3.50;1.30;;;;;;;25.74;76.20;99671.16;109368;1251;59405;-74
2023/08/24 09:14:34;;;;;;;2.60;1.00;;;;;;;25.96;81.89;99671.23;109401;1251;60067;-74
2023/08/24 09:17:03;;;;;;;4.40;1.70;;;;;;;26.16;83.06;99669.86;109303;1251;74680;-73
2023/08/24 09:19:32;;;;;;;3.50;1.40;;;;;;;26.28;75.02;99664.17;109369;1251;69611;-74
2023/08/24 09:22:00;;;;;;;3.50;1.20;;;;;;;26.41;73.75;99660.95;109431;1253;63949;-74
2023/08/24 09:24:32;;;;;;;2.30;1.20;;;;;;;26.51;67.80;99661.36;109338;1251;59412;-74
2023/08/24 09:27:00;;;;;;;1.90;1.20;;;;;;;26.57;72.66;99657.69;109349;1251;59760;-74
2023/08/24 09:29:28;;;;;;;1.10;1.00;;;;;;;26.68;74.18;99654.48;109271;1251;73883;-74
2023/08/24 09:31:56;;;;;;;1.20;0.90;;;;;;;26.85;77.60;99649.73;109292;1251;70830;-73
2023/08/24 09:34:26;;;;;;;4.70;1.40;;;;;;;27.07;78.66;99644.67;109412;1254;72671;-74
2023/08/24 09:36:53;;;;;;;3.20;1.20;;;;;;;27.27;75.58;99646.73;109436;1251;59445;-74
2023/08/24 09:39:21;;;;;;;1.70;1.10;;;;;;;27.44;76.34;99645.94;109446;1251;59078;-73
2023/08/24 09:41:51;;;;;;;1.30;0.90;;;;;;;27.54;72.61;99647.94;109405;1251;74730;-74
2023/08/24 09:44:19;;;;;;;2.40;1.00;;;;;;;27.57;65.40;99647.89;109402;1251;71117;-74
2023/08/24 09:46:47;;;;;;;2.60;0.80;;;;;;;27.48;63.46;99648.27;109379;1251;71234;-74
2023/08/24 09:49:15;;;;;;;1.90;1.00;;;;;;;27.37;64.07;99645.16;109416;1254;59035;-75
2023/08/24 09:51:44;;;;;;;4.00;1.40;;;;;;;27.30;64.31;99642.33;109453;1251;59326;-74
2023/08/24 09:54:13;;;;;;;1.40;0.90;;;;;;;27.18;65.55;99642.40;109447;1251;73871;-74
2023/08/24 09:56:41;;;;;;;1.80;1.20;;;;;;;27.00;61.89;99641.91;109438;1251;70810;-73
2023/08/24 09:59:12;;;;;;;1.00;0.80;;;;;;;26.83;64.34;99643.48;109388;1251;73145;-73
2023/08/24 10:01:43;;;;;;;4.50;1.70;;;;;;;26.80;65.77;99640.56;109394;1251;59001;-74
2023/08/24 10:04:11;;;;;;;3.00;1.20;;;;;;;26.83;61.30;99641.54;109426;1251;59577;-75
2023/08/24 10:06:40;;;;;;;1.50;0.90;;;;;;;26.83;55.96;99640.25;109384;1251;74595;-73
2023/08/24 10:09:08;;;;;;;1.50;1.00;;;;;;;26.81;54.25;99645.86;109411;1251;71140;-73
2023/08/24 10:11:40;;;;;;;5.30;0.80;;;;;;;26.75;47.20;99642.64;109372;1253;71466;-74
2023/08/24 10:14:09;;;;;;;1.10;0.90;;;;;;;26.61;49.63;99640.41;109279;1251;59004;-74
2023/08/24 10:16:37;;;;;;;1.40;1.10;;;;;;;26.57;49.81;99636.16;109356;1251;58957;-74
2023/08/24 10:19:04;;;;;;;1.40;0.90;;;;;;;26.60;54.31;99624.66;109438;1251;74697;-74
2023/08/24 10:21:32;;;;;;;2.70;1.10;;;;;;;26.81;53.51;99621.34;109426;1251;69810;-75
2023/08/24 10:23:59;;;;;;;8.20;1.40;;;;;;;26.98;48.09;99621.64;109397;1251;71709;-74
2023/08/24 10:26:27;;;;;;;2.70;1.30;;;;;;;26.93;48.22;99617.93;109388;1251;60023;-73
2023/08/24 10:28:55;;;;;;;1.40;1.20;;;;;;;26.78;52.20;99621.13;109442;1251;58990;-74
2023/08/24 10:31:22;;;;;;;3.50;1.10;;;;;;;26.64;56.52;99618.55;109237;1251;74616;-74
2023/08/24 10:33:50;;;;;;;3.10;1.10;;;;;;;26.62;56.89;99621.95;109330;1250;71510;-74
2023/08/24 10:36:18;;;;;;;3.10;1.30;;;;;;;26.54;54.71;99623.68;109276;1251;72886;-74
2023/08/24 10:38:45;;;;;;;1.10;1.00;;;;;;;26.44;56.89;99625.16;109273;1251;60138;-75
2023/08/24 10:41:13;;;;;;;1.80;0.90;;;;;;;26.36;56.93;99623.70;109424;1251;59015;-75
2023/08/24 10:43:48;;;;;;;4.10;1.30;;;;;;;26.28;63.06;99621.72;109413;1253;74635;-74
2023/08/24 10:46:18;;;;;;;1.10;1.00;;;;;;;26.34;72.99;99624.25;109376;1250;71146;-74
2023/08/24 10:48:50;;;;;;;1.60;1.00;;;;;;;26.41;73.57;99619.04;107859;1253;1002480;-74
2023/08/24 10:51:19;;;;;;;2.60;0.90;;;;;;;26.48;69.97;99615.94;109439;1251;59154;-74
2023/08/24 10:53:55;;;;;;;1.80;0.90;;;;;;;26.59;72.62;99611.83;109398;1251;60448;-74
2023/08/24 10:56:52;;;;;;;0.90;0.60;;;;;;;26.82;73.64;99603.94;109401;1251;74582;-74
2023/08/24 10:59:20;;;;;;;2.00;0.80;;;;;;;27.18;66.09;99600.83;109351;1251;69816;-74
2023/08/24 11:01:53;;;;;;;1.00;0.90;;;;;;;27.42;58.55;99599.27;109402;1251;71193;-75
2023/08/24 11:04:21;;;;;;;3.30;1.00;;;;;;;27.56;51.09;99599.33;109394;1253;60074;-75
2023/08/24 11:06:56;;;;;;;1.90;0.90;;;;;;;27.52;45.79;99602.39;109407;1251;60721;-74
2023/08/24 11:09:23;;;;;;;2.00;1.30;;;;;;;27.32;48.12;99604.08;109425;1251;64422;-74
2023/08/24 11:11:58;;;;;;;3.50;1.10;;;;;;;27.05;49.44;99610.96;109402;1253;70791;-74
2023/08/24 11:14:26;;;;;;;1.90;0.90;;;;;;;26.84;52.82;99605.03;109380;1251;71352;-75
2023/08/24 11:16:56;;;;;;;5.60;0.90;;;;;;;26.78;53.40;99599.00;109390;1251;59018;-75
2023/08/24 11:19:23;;;;;;;3.10;0.90;;;;;;;26.72;54.86;99596.36;109272;1251;62213;-75